Time;durP1;ratioP1;P1;durP2;ratioP2;P2;SDS_P1;SDS_P2;PMS_P1;PMS_P2;Temp;Humidity;BMP_temperature;BMP_pressure;BME280_temperature;BME280_humidity;BME280_pressure;Samples;Min_cycle;Max_cycle;Signal;HPM_P1;HPM_P2
2024/03/08 00:01:45;;;;;;;40.77;23.83;;;4.30;99.90;;;;;;780466;183;27048;-79
2024/03/08 00:04:11;;;;;;;39.70;22.40;;;4.20;99.90;;;;;;780659;182;26460;-80
2024/03/08 00:06:39;;;;;;;38.07;23.83;;;4.10;99.90;;;;;;780205;184;26470;-80
2024/03/08 00:09:07;;;;;;;36.03;22.07;;;4.10;99.90;;;;;;780236;183;26513;-79
2024/03/08 00:11:31;;;;;;;36.83;22.17;;;4.10;99.90;;;;;;780008;184;27064;-79
2024/03/08 00:13:58;;;;;;;35.90;22.90;;;4.10;99.90;;;;;;780069;184;26462;-80
2024/03/08 00:16:24;;;;;;;37.27;23.13;;;4.00;99.90;;;;;;780008;184;26615;-80
2024/03/08 00:18:51;;;;;;;35.37;21.97;;;4.00;99.90;;;;;;780009;182;26477;-79
2024/03/08 00:21:18;;;;;;;37.93;22.37;;;4.10;99.90;;;;;;780212;184;26470;-79
2024/03/08 00:23:44;;;;;;;38.27;22.50;;;4.10;99.90;;;;;;780070;183;26478;-80
2024/03/08 00:26:11;;;;;;;37.37;23.33;;;4.20;99.90;;;;;;779657;183;26458;-79
2024/03/08 00:28:38;;;;;;;33.23;21.80;;;4.20;99.90;;;;;;779614;182;27013;-78
2024/03/08 00:31:06;;;;;;;40.60;22.27;;;4.10;99.90;;;;;;778939;184;26471;-79
2024/03/08 00:33:31;;;;;;;40.53;24.17;;;4.00;99.90;;;;;;782817;183;26461;-79
2024/03/08 00:35:58;;;;;;;40.20;22.90;;;3.90;99.90;;;;;;780461;183;26446;-80
2024/03/08 00:38:24;;;;;;;37.50;22.47;;;3.90;99.90;;;;;;780317;183;26487;-80
2024/03/08 00:40:51;;;;;;;38.53;23.57;;;3.90;99.90;;;;;;771718;185;26500;-78
2024/03/08 00:43:18;;;;;;;38.90;24.57;;;4.00;99.90;;;;;;784997;180;26477;-79
2024/03/08 00:45:44;;;;;;;35.87;23.30;;;4.00;99.90;;;;;;771555;186;26498;-80
2024/03/08 00:48:11;;;;;;;41.27;23.40;;;3.90;99.90;;;;;;784457;182;27016;-79
2024/03/08 00:50:37;;;;;;;37.43;23.57;;;3.90;99.90;;;;;;771933;185;26605;-78
2024/03/08 00:53:04;;;;;;;38.40;23.97;;;3.90;99.90;;;;;;785020;182;26445;-80
2024/03/08 00:55:31;;;;;;;38.13;24.00;;;3.90;99.90;;;;;;771631;185;26992;-81
2024/03/08 00:57:57;;;;;;;38.87;24.23;;;3.80;99.90;;;;;;784428;182;26996;-81
2024/03/08 01:00:25;;;;;;;39.00;24.27;;;3.80;99.90;;;;;;774066;184;26455;-78
2024/03/08 01:02:51;;;;;;;41.60;23.73;;;3.80;99.90;;;;;;788410;181;26444;-79
2024/03/08 01:05:17;;;;;;;41.20;24.53;;;3.70;99.90;;;;;;780564;184;26470;-80
2024/03/08 01:07:46;;;;;;;40.37;24.43;;;3.70;99.90;;;;;;789153;182;26512;-80
2024/03/08 01:10:11;;;;;;;39.47;23.80;;;3.70;99.90;;;;;;788804;182;26521;-79
2024/03/08 01:12:39;;;;;;;38.57;23.90;;;3.80;99.90;;;;;;785388;181;26458;-79
2024/03/08 01:15:06;;;;;;;41.77;23.73;;;3.80;99.90;;;;;;772801;186;26564;-80
2024/03/08 01:17:33;;;;;;;38.60;23.37;;;3.80;99.90;;;;;;785137;183;26474;-79
2024/03/08 01:20:01;;;;;;;42.10;24.43;;;3.70;99.90;;;;;;772018;186;28125;-80
2024/03/08 01:22:29;;;;;;;42.37;23.73;;;3.80;99.90;;;;;;784944;182;26453;-79
2024/03/08 01:24:56;;;;;;;41.00;23.80;;;3.70;99.90;;;;;;772039;186;26549;-79
2024/03/08 01:27:24;;;;;;;41.17;24.60;;;3.80;99.90;;;;;;785125;182;26454;-79
2024/03/08 01:29:51;;;;;;;40.57;24.00;;;3.70;99.90;;;;;;772128;186;26473;-79
2024/03/08 01:32:19;;;;;;;38.30;22.80;;;3.70;99.90;;;;;;785159;182;26668;-80
2024/03/08 01:34:45;;;;;;;40.20;23.67;;;3.70;99.90;;;;;;772014;186;26473;-79
2024/03/08 01:37:11;;;;;;;39.40;24.80;;;3.60;99.90;;;;;;783574;182;26453;-80
2024/03/08 01:39:38;;;;;;;41.97;23.23;;;3.60;99.90;;;;;;781135;184;26495;-80
2024/03/08 01:42:05;;;;;;;39.23;24.00;;;3.60;99.90;;;;;;780976;182;26464;-80
2024/03/08 01:44:31;;;;;;;44.73;25.90;;;3.50;99.90;;;;;;780927;184;26487;-80
2024/03/08 01:46:58;;;;;;;46.63;23.93;;;3.60;99.90;;;;;;780935;184;27062;-80
2024/03/08 01:49:25;;;;;;;38.93;23.40;;;3.60;99.90;;;;;;780998;184;27033;-80
2024/03/08 01:51:52;;;;;;;44.00;24.50;;;3.60;99.90;;;;;;780648;182;26458;-81
2024/03/08 01:54:19;;;;;;;42.50;23.60;;;3.50;99.90;;;;;;780910;184;26485;-80
2024/03/08 01:56:46;;;;;;;45.20;24.07;;;3.40;99.90;;;;;;780948;182;26454;-80
2024/03/08 01:59:12;;;;;;;44.83;24.60;;;3.40;99.90;;;;;;780907;184;26525;-80
2024/03/08 02:01:39;;;;;;;41.70;25.30;;;3.40;99.90;;;;;;783085;182;26464;-79
2024/03/08 02:04:07;;;;;;;40.53;24.17;;;3.40;99.90;;;;;;781151;183;27069;-80
2024/03/08 02:06:33;;;;;;;41.10;24.37;;;3.40;99.90;;;;;;783414;182;26503;-80
2024/03/08 02:09:00;;;;;;;42.83;25.43;;;3.40;99.90;;;;;;781261;184;26498;-80
2024/03/08 02:11:27;;;;;;;43.60;25.13;;;3.30;99.90;;;;;;782801;182;26433;-79
2024/03/08 02:13:53;;;;;;;43.37;23.47;;;3.40;99.90;;;;;;771851;184;26470;-82
2024/03/08 02:16:21;;;;;;;43.07;24.00;;;3.40;99.90;;;;;;784565;182;26453;-80
2024/03/08 02:18:48;;;;;;;41.90;23.33;;;3.40;99.90;;;;;;784880;183;26480;-80
2024/03/08 02:21:15;;;;;;;44.17;25.97;;;3.40;99.90;;;;;;784718;182;26491;-80
2024/03/08 02:23:41;;;;;;;40.87;25.57;;;3.30;99.90;;;;;;784967;182;26489;-80
2024/03/08 02:26:08;;;;;;;45.33;24.50;;;3.30;99.90;;;;;;775604;185;26507;-79
2024/03/08 02:28:34;;;;;;;43.23;24.10;;;3.30;99.90;;;;;;785181;182;27010;-80
2024/03/08 02:31:02;;;;;;;40.97;23.53;;;3.30;99.90;;;;;;775139;185;27011;-78
2024/03/08 02:33:28;;;;;;;44.13;25.33;;;3.40;99.90;;;;;;784787;182;26460;-79
2024/03/08 02:35:55;;;;;;;44.67;24.57;;;3.30;99.90;;;;;;775190;186;26987;-80
2024/03/08 02:38:21;;;;;;;44.03;24.50;;;3.30;99.90;;;;;;784573;182;26487;-80
2024/03/08 02:40:48;;;;;;;44.03;24.63;;;3.30;99.90;;;;;;784714;180;26453;-81
2024/03/08 02:43:15;;;;;;;44.00;25.13;;;3.30;99.90;;;;;;784650;182;26434;-79
2024/03/08 02:45:43;;;;;;;39.43;24.07;;;3.30;99.90;;;;;;781009;182;26484;-78
2024/03/08 02:48:10;;;;;;;46.40;25.10;;;3.30;99.90;;;;;;780092;182;27043;-79
2024/03/08 02:50:36;;;;;;;46.20;24.37;;;3.20;99.90;;;;;;771467;186;26527;-80
2024/03/08 02:53:03;;;;;;;43.13;25.13;;;3.20;99.90;;;;;;784509;183;26470;-79
2024/03/08 02:55:30;;;;;;;43.10;24.53;;;3.20;99.90;;;;;;771641;185;27059;-80
2024/03/08 02:57:56;;;;;;;47.20;25.43;;;3.20;99.90;;;;;;784412;181;26507;-80
2024/03/08 03:00:24;;;;;;;44.07;25.60;;;3.10;99.90;;;;;;771795;185;26485;-80
2024/03/08 03:02:53;;;;;;;45.77;25.97;;;3.00;99.90;;;;;;784287;182;26996;-80
2024/03/08 03:05:18;;;;;;;45.10;25.03;;;3.20;99.90;;;;;;784238;181;26457;-80
2024/03/08 03:07:45;;;;;;;44.70;26.60;;;3.20;99.90;;;;;;784059;182;26489;-79
2024/03/08 03:10:12;;;;;;;42.93;25.00;;;3.20;99.90;;;;;;774525;185;26471;-79
2024/03/08 03:12:39;;;;;;;42.80;25.40;;;3.20;99.90;;;;;;784279;182;26456;-80
2024/03/08 03:15:06;;;;;;;41.80;25.17;;;3.10;99.90;;;;;;774587;185;26521;-80
2024/03/08 03:17:33;;;;;;;45.30;24.90;;;3.20;99.90;;;;;;784113;182;26449;-79
2024/03/08 03:20:02;;;;;;;42.50;24.50;;;3.10;99.90;;;;;;774467;185;26470;-80
2024/03/08 03:22:26;;;;;;;44.90;24.87;;;3.10;99.90;;;;;;785148;181;26460;-80
2024/03/08 03:24:53;;;;;;;44.67;25.50;;;3.10;99.90;;;;;;790064;170;26508;-81
2024/03/08 03:27:20;;;;;;;41.43;23.83;;;3.10;99.90;;;;;;800797;177;26462;-80
2024/03/08 03:29:47;;;;;;;41.33;24.63;;;3.10;99.90;;;;;;784720;180;27004;-79
2024/03/08 03:32:13;;;;;;;44.83;25.67;;;3.20;99.90;;;;;;785560;180;26484;-80
2024/03/08 03:34:40;;;;;;;46.63;26.20;;;3.20;99.90;;;;;;790097;181;26429;-81
2024/03/08 03:37:12;;;;;;;46.10;24.37;;;3.10;99.90;;;;;;784536;181;26449;-80
2024/03/08 03:39:40;;;;;;;45.60;23.93;;;3.10;99.90;;;;;;789530;182;26483;-77
2024/03/08 03:42:03;;;;;;;46.20;25.47;;;3.10;99.90;;;;;;783281;182;26445;-78
2024/03/08 03:44:30;;;;;;;49.10;24.83;;;3.10;99.90;;;;;;787649;181;26494;-80
2024/03/08 03:46:56;;;;;;;46.23;25.03;;;3.10;99.90;;;;;;787098;181;26471;-80
2024/03/08 03:49:23;;;;;;;45.27;24.63;;;3.20;99.90;;;;;;793632;180;26487;-81
2024/03/08 03:51:50;;;;;;;44.67;24.30;;;3.10;99.90;;;;;;781324;183;26977;-80
2024/03/08 03:54:16;;;;;;;44.10;25.13;;;3.10;99.90;;;;;;791112;181;27001;-80
2024/03/08 03:56:44;;;;;;;43.03;25.23;;;3.10;99.90;;;;;;778947;181;27029;-79
2024/03/08 03:59:11;;;;;;;40.83;24.83;;;3.20;99.90;;;;;;783634;182;26530;-81
2024/03/08 04:01:37;;;;;;;44.10;25.90;;;3.10;99.90;;;;;;785571;181;26444;-80
2024/03/08 04:04:05;;;;;;;50.93;24.77;;;3.20;99.90;;;;;;782264;182;26797;-79
2024/03/08 04:06:31;;;;;;;50.20;24.97;;;3.10;99.90;;;;;;784407;181;26479;-79
2024/03/08 04:08:58;;;;;;;47.47;24.70;;;3.20;99.90;;;;;;782160;181;27084;-79
2024/03/08 04:11:25;;;;;;;43.07;25.30;;;3.10;99.90;;;;;;792888;181;26435;-79
2024/03/08 04:13:54;;;;;;;45.53;25.33;;;3.00;99.90;;;;;;780505;179;26462;-81
2024/03/08 04:16:19;;;;;;;40.30;23.73;;;3.00;99.90;;;;;;778981;183;26451;-76
2024/03/08 04:18:47;;;;;;;46.80;26.07;;;3.10;99.90;;;;;;793358;181;26432;-77
2024/03/08 04:21:13;;;;;;;45.10;25.20;;;3.10;99.90;;;;;;778395;183;26524;-78
2024/03/08 04:23:40;;;;;;;45.07;24.30;;;3.10;99.90;;;;;;792050;181;26452;-78
2024/03/08 04:26:08;;;;;;;44.57;26.93;;;3.20;99.90;;;;;;778095;182;28191;-81
2024/03/08 04:28:34;;;;;;;39.87;23.90;;;3.20;99.90;;;;;;779743;183;26547;-80
2024/03/08 04:31:01;;;;;;;42.73;24.57;;;3.20;99.90;;;;;;773331;183;26453;-81
2024/03/08 04:33:28;;;;;;;45.07;25.10;;;3.20;99.90;;;;;;792989;178;26398;-81
2024/03/08 04:35:54;;;;;;;41.50;24.27;;;3.20;99.90;;;;;;777384;181;26507;-82
2024/03/08 04:38:21;;;;;;;44.70;24.70;;;3.10;99.90;;;;;;777704;183;26469;-80
2024/03/08 04:40:48;;;;;;;47.33;26.37;;;3.10;99.90;;;;;;790034;178;26996;-79
2024/03/08 04:43:15;;;;;;;47.33;26.30;;;3.10;99.90;;;;;;786465;181;26453;-80
2024/03/08 04:45:43;;;;;;;44.00;24.13;;;3.00;99.90;;;;;;786032;181;26484;-80
2024/03/08 04:48:08;;;;;;;44.53;25.83;;;3.00;99.90;;;;;;791080;181;26468;-81
2024/03/08 04:50:35;;;;;;;45.47;24.50;;;3.00;99.90;;;;;;785422;181;26724;-81
2024/03/08 04:53:03;;;;;;;45.27;26.03;;;3.00;99.90;;;;;;782762;181;26476;-80
2024/03/08 04:55:29;;;;;;;41.37;24.67;;;3.00;99.90;;;;;;789645;181;26430;-81
2024/03/08 04:57:55;;;;;;;47.67;25.70;;;2.90;99.90;;;;;;779399;182;26485;-81
2024/03/08 05:00:22;;;;;;;49.53;25.83;;;3.00;99.90;;;;;;782458;181;26462;-79
2024/03/08 05:02:48;;;;;;;44.17;25.27;;;3.00;99.90;;;;;;780612;182;26610;-80
2024/03/08 05:05:15;;;;;;;53.60;27.60;;;2.90;99.90;;;;;;781728;183;26454;-81
2024/03/08 05:07:45;;;;;;;46.50;25.37;;;2.90;99.90;;;;;;777301;183;26448;-81
2024/03/08 05:10:09;;;;;;;46.93;25.83;;;2.90;99.90;;;;;;781245;183;26451;-80
2024/03/08 05:12:38;;;;;;;48.37;26.10;;;2.90;99.90;;;;;;781122;182;26439;-80
2024/03/08 05:15:07;;;;;;;44.73;24.60;;;2.90;99.90;;;;;;774945;183;26462;-80
2024/03/08 05:17:35;;;;;;;48.40;26.10;;;3.00;99.90;;;;;;775688;183;26483;-79
2024/03/08 05:20:03;;;;;;;49.77;26.93;;;3.00;99.90;;;;;;788715;181;26979;-81
2024/03/08 05:22:30;;;;;;;51.47;26.83;;;2.90;99.90;;;;;;788998;180;27142;-80
2024/03/08 05:24:58;;;;;;;44.90;25.43;;;2.80;99.90;;;;;;790785;181;26455;-81
2024/03/08 05:27:24;;;;;;;45.03;24.93;;;2.80;99.90;;;;;;781241;182;26456;-80
2024/03/08 05:29:52;;;;;;;48.30;26.63;;;2.90;99.90;;;;;;779078;184;26462;-82
2024/03/08 05:32:18;;;;;;;41.47;24.73;;;2.80;99.90;;;;;;782655;183;26451;-80
2024/03/08 05:34:45;;;;;;;47.23;25.67;;;2.70;99.90;;;;;;781117;184;26441;-81
2024/03/08 05:37:12;;;;;;;48.07;25.80;;;2.60;99.90;;;;;;783483;182;26440;-80
2024/03/08 05:39:40;;;;;;;50.97;28.20;;;2.60;99.90;;;;;;781402;184;26512;-81
2024/03/08 05:42:08;;;;;;;49.23;26.47;;;2.60;99.90;;;;;;779302;184;26443;-79
2024/03/08 05:44:33;;;;;;;48.77;26.87;;;2.60;99.90;;;;;;780354;183;26445;-81
2024/03/08 05:47:00;;;;;;;54.03;27.67;;;2.60;99.90;;;;;;785060;181;26457;-83
2024/03/08 05:49:28;;;;;;;51.33;28.50;;;2.60;99.90;;;;;;784221;183;26468;-81
2024/03/08 05:51:54;;;;;;;52.50;26.47;;;2.70;99.90;;;;;;783851;180;26465;-80
2024/03/08 05:54:24;;;;;;;49.30;26.83;;;2.70;99.90;;;;;;781126;180;26482;-80
2024/03/08 05:56:48;;;;;;;46.07;27.37;;;2.70;99.90;;;;;;781681;180;26461;-79
2024/03/08 05:59:15;;;;;;;51.57;26.93;;;2.60;99.90;;;;;;779777;183;26631;-80
2024/03/08 06:01:42;;;;;;;53.93;27.47;;;2.70;99.90;;;;;;779083;183;26470;-80
2024/03/08 06:04:09;;;;;;;46.87;26.50;;;2.70;99.90;;;;;;783563;183;26452;-82
2024/03/08 06:06:37;;;;;;;48.30;27.33;;;2.80;99.90;;;;;;782883;183;26481;-82
2024/03/08 06:09:10;;;;;;;52.90;27.30;;;2.70;99.90;;;;;;778473;183;26498;-81
2024/03/08 06:11:31;;;;;;;53.87;27.10;;;2.80;99.90;;;;;;782241;183;28109;-81
2024/03/08 06:14:00;;;;;;;52.83;26.80;;;2.80;99.90;;;;;;779771;183;26473;-82
2024/03/08 06:16:29;;;;;;;52.70;27.80;;;2.80;99.90;;;;;;780536;183;26454;-82
2024/03/08 06:18:55;;;;;;;47.47;25.90;;;2.80;99.90;;;;;;782627;180;26513;-82
2024/03/08 06:21:22;;;;;;;49.10;27.10;;;2.80;99.90;;;;;;782861;183;26487;-81
2024/03/08 06:23:49;;;;;;;49.43;25.93;;;2.80;99.90;;;;;;783453;180;26677;-83
2024/03/08 06:26:16;;;;;;;53.53;28.70;;;2.90;99.90;;;;;;780291;184;26470;-81
2024/03/08 06:28:44;;;;;;;48.83;26.93;;;2.90;99.90;;;;;;783407;183;26473;-80
2024/03/08 06:31:11;;;;;;;50.90;25.90;;;3.00;99.90;;;;;;779706;184;27065;-81
2024/03/08 06:33:37;;;;;;;49.13;25.53;;;3.00;99.90;;;;;;777978;182;26457;-80
2024/03/08 06:36:04;;;;;;;56.03;27.37;;;3.00;99.90;;;;;;781891;181;26454;-80
2024/03/08 06:38:31;;;;;;;55.50;27.80;;;2.90;99.90;;;;;;780848;181;26475;-81
2024/03/08 06:40:58;;;;;;;55.87;27.73;;;3.00;99.90;;;;;;779072;183;26454;-81
2024/03/08 06:43:32;;;;;;;53.33;28.37;;;3.00;99.90;;;;;;779734;184;26448;-79
2024/03/08 06:45:52;;;;;;;56.70;27.63;;;3.00;99.90;;;;;;779166;184;26588;-79
2024/03/08 06:48:18;;;;;;;54.57;27.57;;;3.10;99.90;;;;;;779468;183;26480;-78
2024/03/08 06:50:46;;;;;;;54.93;29.03;;;3.20;99.90;;;;;;779809;184;26451;-80
2024/03/08 06:53:14;;;;;;;49.00;27.53;;;3.20;99.90;;;;;;778911;184;26443;-81
2024/03/08 06:55:41;;;;;;;43.80;22.87;;;3.30;99.90;;;;;;778048;183;26438;-80
2024/03/08 06:58:10;;;;;;;55.80;26.50;;;3.40;99.90;;;;;;780230;182;26470;-81
2024/03/08 07:00:36;;;;;;;52.37;28.53;;;3.40;99.90;;;;;;779646;184;26462;-79
2024/03/08 07:03:02;;;;;;;51.40;27.63;;;3.40;99.90;;;;;;779630;182;26446;-80
2024/03/08 07:05:29;;;;;;;55.63;27.87;;;3.40;99.90;;;;;;781789;177;26453;-83
2024/03/08 07:07:55;;;;;;;49.60;27.73;;;3.40;99.90;;;;;;782945;183;26476;-80
2024/03/08 07:10:24;;;;;;;52.93;27.93;;;3.50;99.90;;;;;;782914;183;26986;-80
2024/03/08 07:12:49;;;;;;;54.50;27.03;;;3.60;99.90;;;;;;782969;183;26590;-81
2024/03/08 07:15:16;;;;;;;52.60;28.67;;;3.70;99.90;;;;;;782280;181;27678;-81
2024/03/08 07:17:44;;;;;;;53.37;26.67;;;3.70;99.90;;;;;;776342;184;26589;-79
2024/03/08 07:20:12;;;;;;;49.73;26.63;;;3.80;99.90;;;;;;776248;183;26977;-79
2024/03/08 07:22:38;;;;;;;52.83;26.87;;;3.90;99.90;;;;;;776327;183;26484;-80
2024/03/08 07:25:21;;;;;;;48.33;26.50;;;3.90;99.90;;;;;;778203;185;26438;-81
2024/03/08 07:27:48;;;;;;;49.40;27.07;;;4.00;99.90;;;;;;777945;181;26496;-82
2024/03/08 07:32:48;;;;;;;48.50;27.37;;;4.10;99.90;;;;;;776367;184;26548;-80
2024/03/08 07:35:15;;;;;;;50.73;27.50;;;4.20;99.90;;;;;;778637;183;26596;-78
2024/03/08 07:37:41;;;;;;;52.43;26.90;;;4.20;99.90;;;;;;780196;183;26804;-79
2024/03/08 07:40:09;;;;;;;47.70;25.87;;;4.30;99.90;;;;;;777109;184;26457;-79
2024/03/08 07:42:35;;;;;;;49.80;27.63;;;4.30;99.90;;;;;;781079;182;26453;-80
2024/03/08 07:45:02;;;;;;;45.40;25.57;;;4.40;99.90;;;;;;779209;184;27094;-80
2024/03/08 07:47:32;;;;;;;47.17;25.97;;;4.50;99.90;;;;;;779943;183;26604;-80
2024/03/08 07:49:55;;;;;;;47.07;26.23;;;4.50;99.90;;;;;;780558;183;26458;-81
2024/03/08 07:52:22;;;;;;;48.50;25.43;;;4.60;99.90;;;;;;778809;184;26970;-81
2024/03/08 07:54:48;;;;;;;48.43;25.40;;;4.70;99.90;;;;;;778991;182;26648;-81
2024/03/08 07:57:15;;;;;;;51.93;27.20;;;4.80;99.90;;;;;;782153;183;26496;-81
2024/03/08 07:59:41;;;;;;;43.10;25.07;;;4.90;99.90;;;;;;782026;182;26470;-81
2024/03/08 08:02:09;;;;;;;50.90;25.87;;;5.00;99.90;;;;;;779519;184;26502;-81
2024/03/08 08:04:36;;;;;;;45.13;24.53;;;5.10;99.90;;;;;;779445;183;26472;-81
2024/03/08 08:07:03;;;;;;;45.37;26.00;;;5.20;99.90;;;;;;782404;183;26467;-80
2024/03/08 08:09:34;;;;;;;44.63;25.00;;;5.30;99.90;;;;;;782988;182;26689;-79
2024/03/08 08:11:56;;;;;;;41.70;24.00;;;5.40;99.90;;;;;;781344;183;26449;-80
2024/03/08 08:14:23;;;;;;;42.03;24.70;;;5.50;99.90;;;;;;778251;181;26462;-80
2024/03/08 08:16:52;;;;;;;47.87;25.77;;;5.50;99.90;;;;;;777648;185;26571;-80
2024/03/08 08:19:16;;;;;;;40.67;23.57;;;5.60;99.90;;;;;;776485;184;26467;-80
2024/03/08 08:21:42;;;;;;;44.60;24.93;;;5.60;99.90;;;;;;778608;183;27033;-81
2024/03/08 08:24:10;;;;;;;41.10;22.37;;;5.70;99.90;;;;;;778242;183;26462;-81
2024/03/08 08:26:36;;;;;;;42.33;24.13;;;5.70;99.90;;;;;;779810;183;26450;-81
2024/03/08 08:29:02;;;;;;;42.60;23.23;;;5.70;99.90;;;;;;779013;184;27171;-82
2024/03/08 08:31:29;;;;;;;42.40;22.97;;;5.80;99.90;;;;;;776734;183;26459;-81
2024/03/08 08:33:58;;;;;;;44.63;24.40;;;5.90;99.90;;;;;;781149;183;27048;-83
2024/03/08 08:36:22;;;;;;;44.60;24.63;;;5.90;99.90;;;;;;779300;183;26461;-82
2024/03/08 08:38:50;;;;;;;42.50;23.73;;;6.00;99.90;;;;;;778135;183;26473;-77
2024/03/08 08:41:17;;;;;;;41.13;23.53;;;6.20;99.90;;;;;;778545;183;26648;-80
2024/03/08 08:43:43;;;;;;;41.83;24.63;;;6.30;99.90;;;;;;778826;181;26632;-82
2024/03/08 08:46:09;;;;;;;38.20;22.20;;;6.40;99.60;;;;;;778051;184;26475;-82
2024/03/08 08:48:36;;;;;;;41.67;23.47;;;6.50;99.30;;;;;;778243;182;26562;-79
2024/03/08 08:51:03;;;;;;;40.40;23.73;;;6.50;99.70;;;;;;778500;183;26486;-79
2024/03/08 08:53:29;;;;;;;43.30;22.87;;;6.60;99.50;;;;;;779201;181;26619;-80
2024/03/08 08:55:56;;;;;;;39.93;23.83;;;6.80;98.80;;;;;;779336;183;26513;-78
2024/03/08 08:58:23;;;;;;;39.00;22.50;;;6.90;98.80;;;;;;779681;182;26475;-80
2024/03/08 09:00:50;;;;;;;41.47;23.63;;;6.90;98.60;;;;;;779754;183;26508;-79
2024/03/08 09:03:17;;;;;;;38.70;21.07;;;7.00;98.40;;;;;;778929;183;26479;-78
2024/03/08 09:05:43;;;;;;;36.83;21.73;;;7.10;97.80;;;;;;779909;182;26499;-79
2024/03/08 09:08:10;;;;;;;35.47;21.97;;;7.20;98.20;;;;;;779063;183;26627;-81
2024/03/08 09:10:39;;;;;;;38.73;22.63;;;7.30;97.60;;;;;;776604;183;27033;-79
2024/03/08 09:13:04;;;;;;;39.13;23.20;;;7.30;96.80;;;;;;777615;184;26462;-80
2024/03/08 09:15:30;;;;;;;36.97;22.47;;;7.30;96.80;;;;;;776784;184;26459;-80
2024/03/08 09:17:59;;;;;;;39.77;22.30;;;7.40;96.60;;;;;;778738;184;26482;-80
2024/03/08 09:20:24;;;;;;;35.50;22.80;;;7.40;96.60;;;;;;783096;181;26468;-81
2024/03/08 09:22:50;;;;;;;33.57;21.43;;;7.50;97.60;;;;;;782806;181;26466;-84
2024/03/08 09:25:17;;;;;;;35.53;21.97;;;7.60;96.30;;;;;;781300;183;26475;-81
2024/03/08 09:27:45;;;;;;;36.07;21.03;;;7.60;96.60;;;;;;780075;181;26620;-81
2024/03/08 09:30:13;;;;;;;35.67;21.27;;;7.80;96.30;;;;;;782372;180;26595;-80
2024/03/08 09:32:38;;;;;;;33.97;20.63;;;7.80;96.50;;;;;;781279;183;26986;-79
2024/03/08 09:35:07;;;;;;;36.00;21.93;;;7.90;95.10;;;;;;780616;181;26446;-80
2024/03/08 09:37:33;;;;;;;37.73;20.53;;;7.90;95.90;;;;;;782043;177;26599;-82
2024/03/08 09:39:59;;;;;;;33.87;19.90;;;8.00;95.90;;;;;;778632;183;26489;-79
2024/03/08 09:42:25;;;;;;;35.13;21.37;;;8.30;94.30;;;;;;777720;183;26517;-78
2024/03/08 09:44:52;;;;;;;30.63;19.50;;;8.50;95.50;;;;;;779059;183;26461;-81
2024/03/08 09:47:19;;;;;;;29.90;19.40;;;8.60;93.70;;;;;;780830;183;26611;-80
2024/03/08 09:49:46;;;;;;;30.20;18.83;;;8.70;93.60;;;;;;778258;183;26482;-80
2024/03/08 09:52:12;;;;;;;31.83;20.00;;;8.80;94.20;;;;;;780527;183;26509;-79
2024/03/08 09:54:39;;;;;;;34.23;20.10;;;8.90;92.90;;;;;;779153;183;26469;-80
2024/03/08 09:57:08;;;;;;;30.30;19.27;;;8.90;93.10;;;;;;780827;181;26464;-79
2024/03/08 09:59:46;;;;;;;31.10;18.27;;;9.00;93.10;;;;;;779775;184;26479;-80
2024/03/08 10:02:14;;;;;;;28.80;16.63;;;8.90;92.00;;;;;;777298;183;26450;-81
2024/03/08 10:04:46;;;;;;;30.53;19.00;;;8.90;92.20;;;;;;778776;184;26466;-79
2024/03/08 10:07:10;;;;;;;29.13;17.80;;;8.90;92.60;;;;;;779527;184;26497;-78
2024/03/08 10:09:37;;;;;;;27.20;17.07;;;9.00;91.70;;;;;;780292;184;26478;-78
2024/03/08 10:12:03;;;;;;;28.77;17.47;;;9.00;92.00;;;;;;779109;183;26462;-79
2024/03/08 10:14:30;;;;;;;25.17;17.00;;;8.90;92.60;;;;;;778682;182;26463;-80
2024/03/08 10:17:00;;;;;;;22.83;14.53;;;8.90;92.10;;;;;;779708;184;26471;-79
2024/03/08 10:19:25;;;;;;;23.57;14.33;;;9.10;91.60;;;;;;780470;184;26461;-80
2024/03/08 10:21:55;;;;;;;24.13;14.10;;;9.00;90.70;;;;;;780135;183;27000;-80
2024/03/08 10:24:20;;;;;;;22.40;14.40;;;9.10;90.70;;;;;;777680;183;26620;-80
2024/03/08 10:26:47;;;;;;;24.37;14.70;;;9.30;89.50;;;;;;778162;181;26455;-81
2024/03/08 10:29:15;;;;;;;23.83;13.80;;;9.20;89.90;;;;;;775838;183;26504;-80
2024/03/08 10:31:40;;;;;;;22.23;13.27;;;9.10;90.70;;;;;;778452;182;26592;-79
2024/03/08 10:34:07;;;;;;;21.00;13.07;;;9.20;89.80;;;;;;781377;182;26462;-81
2024/03/08 10:36:34;;;;;;;22.30;12.70;;;9.30;87.90;;;;;;782085;181;26631;-81
2024/03/08 10:39:00;;;;;;;24.47;13.83;;;9.40;84.30;;;;;;779203;181;26478;-80
2024/03/08 10:41:27;;;;;;;20.13;11.37;;;9.60;85.60;;;;;;783625;183;26619;-82
2024/03/08 10:44:06;;;;;;;22.00;12.80;;;9.70;86.40;;;;;;783332;183;26495;-81
2024/03/08 10:46:32;;;;;;;19.67;12.93;;;9.70;83.80;;;;;;780752;183;26511;-82
2024/03/08 10:48:58;;;;;;;18.50;12.47;;;9.60;81.20;;;;;;781759;183;26484;-81
2024/03/08 10:51:25;;;;;;;21.03;12.50;;;9.60;83.30;;;;;;779965;183;27036;-81
2024/03/08 10:53:51;;;;;;;20.23;13.53;;;9.80;85.70;;;;;;778775;184;26461;-81
2024/03/08 10:56:18;;;;;;;20.03;12.83;;;10.40;77.50;;;;;;780049;184;26495;-81
2024/03/08 10:58:45;;;;;;;20.00;13.07;;;11.80;70.80;;;;;;776913;184;26489;-81
2024/03/08 11:01:11;;;;;;;18.37;12.43;;;13.10;57.80;;;;;;780484;180;26461;-79
2024/03/08 11:03:50;;;;;;;22.27;12.77;;;13.90;49.90;;;;;;779896;181;26463;-80
2024/03/08 11:06:18;;;;;;;19.97;12.73;;;14.50;51.70;;;;;;778087;183;26523;-80
2024/03/08 11:08:44;;;;;;;21.37;13.77;;;15.20;46.60;;;;;;780054;181;27068;-79
2024/03/08 11:11:27;;;;;;;19.17;14.07;;;15.70;45.40;;;;;;780277;184;26486;-80
2024/03/08 11:13:51;;;;;;;20.97;13.37;;;14.80;45.50;;;;;;781005;183;26448;-81
2024/03/08 11:16:36;;;;;;;21.13;13.53;;;14.50;45.60;;;;;;779577;181;26459;-81
2024/03/08 11:19:10;;;;;;;20.60;13.03;;;14.70;45.40;;;;;;778320;183;26466;-80
2024/03/08 11:21:33;;;;;;;17.90;12.00;;;15.40;43.90;;;;;;778506;184;26467;-80
2024/03/08 11:24:01;;;;;;;18.40;12.73;;;16.00;41.90;;;;;;778856;184;26446;-80
2024/03/08 11:26:28;;;;;;;19.40;13.67;;;16.20;41.40;;;;;;778176;184;26438;-80
2024/03/08 11:28:55;;;;;;;19.47;13.33;;;16.20;40.90;;;;;;780592;184;26461;-80
2024/03/08 11:31:23;;;;;;;16.23;12.27;;;16.00;41.00;;;;;;777152;184;26993;-79
2024/03/08 11:33:50;;;;;;;18.73;12.90;;;16.20;41.20;;;;;;778474;184;26619;-80
2024/03/08 11:36:21;;;;;;;17.60;12.70;;;16.80;40.70;;;;;;778524;184;26452;-80
2024/03/08 11:38:52;;;;;;;19.53;12.37;;;17.20;39.40;;;;;;781488;184;27780;-80
2024/03/08 11:41:19;;;;;;;19.10;13.40;;;17.50;37.80;;;;;;766108;184;26455;-79
2024/03/08 11:43:44;;;;;;;20.17;12.93;;;17.70;37.20;;;;;;781810;182;26463;-79
2024/03/08 11:46:14;;;;;;;21.47;13.10;;;18.20;36.80;;;;;;782655;181;26445;-81
2024/03/08 11:48:43;;;;;;;17.97;13.30;;;18.30;36.00;;;;;;783694;183;26531;-81
2024/03/08 11:51:11;;;;;;;18.30;13.33;;;18.00;38.30;;;;;;779961;182;27035;-81
2024/03/08 11:53:37;;;;;;;17.73;12.40;;;18.30;35.80;;;;;;781719;182;26478;-81
2024/03/08 11:56:09;;;;;;;16.67;12.33;;;18.40;36.60;;;;;;777137;184;26455;-80
2024/03/08 11:58:36;;;;;;;17.07;12.30;;;19.00;35.70;;;;;;778427;184;26499;-80
2024/03/08 12:01:05;;;;;;;15.43;11.63;;;18.70;35.60;;;;;;780335;184;26461;-80
2024/03/08 12:03:34;;;;;;;17.07;12.00;;;18.70;34.20;;;;;;776445;184;26613;-81
2024/03/08 12:06:03;;;;;;;16.60;12.57;;;18.60;34.40;;;;;;779719;183;26491;-80
2024/03/08 12:08:29;;;;;;;19.30;12.80;;;17.90;35.30;;;;;;778904;183;26494;-79
2024/03/08 12:10:59;;;;;;;20.43;12.67;;;18.40;34.10;;;;;;780041;181;26993;-80
2024/03/08 12:13:23;;;;;;;16.53;11.97;;;18.20;33.60;;;;;;783465;183;26446;-79
2024/03/08 12:15:49;;;;;;;16.87;12.73;;;18.00;35.90;;;;;;778982;183;26482;-80
2024/03/08 12:18:16;;;;;;;17.33;12.17;;;17.60;34.50;;;;;;782874;183;26485;-79
2024/03/08 12:20:48;;;;;;;16.73;11.80;;;18.20;35.60;;;;;;779646;184;27026;-81
2024/03/08 12:23:09;;;;;;;17.80;12.57;;;18.00;33.30;;;;;;777543;184;26462;-80
2024/03/08 12:25:36;;;;;;;17.67;12.40;;;18.30;32.90;;;;;;777424;184;26476;-82
2024/03/08 12:28:10;;;;;;;17.23;12.20;;;18.20;33.60;;;;;;779557;182;26474;-80
2024/03/08 12:30:34;;;;;;;19.63;13.30;;;18.40;35.00;;;;;;777226;184;26467;-80
2024/03/08 12:33:01;;;;;;;17.13;12.37;;;18.70;33.20;;;;;;780687;183;26446;-81
2024/03/08 12:35:27;;;;;;;17.03;11.67;;;18.20;33.70;;;;;;778532;183;26456;-78
2024/03/08 12:37:54;;;;;;;17.13;11.67;;;17.60;34.50;;;;;;777546;184;26482;-79